Time;durP1;ratioP1;P1;durP2;ratioP2;P2;SDS_P1;SDS_P2;PMS_P1;PMS_P2;Temp;Humidity;BMP_temperature;BMP_pressure;BME280_temperature;BME280_humidity;BME280_pressure;Samples;Min_cycle;Max_cycle;Signal;HPM_P1;HPM_P2
2023/01/12 00:02:13;;;;;;;11.53;4.77;;;;;;;8.26;83.14;99144.25;5077503;28;20190;-90
2023/01/12 00:04:39;;;;;;;10.10;5.23;;;;;;;8.13;83.77;99143.94;5076231;28;20179;-91
2023/01/12 00:07:06;;;;;;;11.87;4.80;;;;;;;8.17;83.81;99144.66;5076041;28;20238;-91
2023/01/12 00:09:32;;;;;;;10.17;5.33;;;;;;;8.43;83.20;99150.50;5076102;28;20230;-91
2023/01/12 00:11:57;;;;;;;15.57;4.27;;;;;;;8.22;83.59;99155.75;5076853;28;20205;-91
2023/01/12 00:14:23;;;;;;;17.77;5.67;;;;;;;8.49;83.30;99152.00;5076032;28;20203;-90
2023/01/12 00:16:48;;;;;;;10.00;4.73;;;;;;;8.46;82.85;99149.53;5075889;28;20181;-90
2023/01/12 00:19:19;;;;;;;15.93;5.67;;;;;;;8.47;82.78;99144.22;5076720;28;20214;-91
2023/01/12 00:21:58;;;;;;;10.00;5.30;;;;;;;8.45;81.69;99147.81;5076742;28;20198;-91
2023/01/12 00:24:27;;;;;;;11.17;5.07;;;;;;;8.50;83.36;99151.06;5076638;28;20180;-92
2023/01/12 00:26:54;;;;;;;13.83;5.10;;;;;;;8.51;82.33;99150.16;5076790;28;20174;-90
2023/01/12 00:29:21;;;;;;;9.43;5.00;;;;;;;8.71;81.81;99149.25;5076747;28;20174;-90
2023/01/12 00:31:46;;;;;;;8.73;5.10;;;;;;;8.73;81.47;99150.88;5076858;28;20252;-90
2023/01/12 00:34:13;;;;;;;14.57;5.83;;;;;;;8.73;81.44;99153.50;5076582;28;20199;-90
2023/01/12 00:36:38;;;;;;;10.60;5.63;;;;;;;8.70;81.06;99156.25;5076374;28;20618;-91
2023/01/12 00:39:04;;;;;;;12.80;6.10;;;;;;;8.58;81.77;99154.19;5075254;28;20211;-90
2023/01/12 00:46:57;;;;;;;13.27;6.87;;;;;;;8.80;80.98;99148.88;5076383;28;20176;-90
2023/01/12 00:49:23;;;;;;;16.13;6.93;;;;;;;8.93;80.50;99155.22;5076497;28;20180;-89
2023/01/12 00:51:48;;;;;;;17.57;6.13;;;;;;;8.87;80.14;99150.28;5076530;28;20188;-90
2023/01/12 00:54:14;;;;;;;13.90;6.90;;;;;;;8.87;80.45;99158.97;5075762;28;20199;-89
2023/01/12 00:56:39;;;;;;;11.67;5.47;;;;;;;8.77;80.39;99155.06;5076110;28;20237;-89
2023/01/12 00:59:05;;;;;;;10.07;6.43;;;;;;;8.62;81.33;99161.00;5074921;28;20184;-89
2023/01/12 01:01:34;;;;;;;14.73;6.53;;;;;;;8.82;81.16;99158.34;5075978;28;20184;-88
2023/01/12 01:04:00;;;;;;;11.83;6.70;;;;;;;8.46;81.65;99154.75;5076016;28;20638;-89
2023/01/12 01:06:25;;;;;;;13.77;5.87;;;;;;;8.42;82.46;99153.16;5075522;28;20613;-89
2023/01/12 01:08:51;;;;;;;12.90;5.97;;;;;;;8.42;82.49;99159.25;5075846;28;20173;-91
2023/01/12 01:11:17;;;;;;;15.40;5.53;;;;;;;8.45;82.65;99155.66;5074776;28;20297;-90
2023/01/12 01:13:42;;;;;;;14.43;6.50;;;;;;;8.51;82.52;99164.09;5074918;28;20212;-90
2023/01/12 01:16:11;;;;;;;11.03;6.10;;;;;;;8.47;82.60;99162.50;5074657;28;20263;-90
2023/01/12 01:18:37;;;;;;;9.07;5.13;;;;;;;8.49;81.72;99162.44;5074612;28;20272;-91
2023/01/12 01:21:03;;;;;;;16.77;6.80;;;;;;;8.49;82.18;99154.63;5074635;28;20192;-90
2023/01/12 01:23:31;;;;;;;19.70;5.73;;;;;;;8.60;82.10;99160.19;5075394;28;20177;-90
2023/01/12 01:26:05;;;;;;;14.27;7.80;;;;;;;8.38;82.28;99165.53;5074490;28;20176;-89
2023/01/12 01:28:31;;;;;;;15.83;7.37;;;;;;;8.44;82.02;99160.00;5075611;28;20176;-90
2023/01/12 01:31:08;;;;;;;14.40;6.17;;;;;;;8.72;81.17;99157.06;5075789;28;20252;-89
2023/01/12 01:33:33;;;;;;;10.13;5.57;;;;;;;8.51;81.73;99152.78;5074326;28;20263;-90
2023/01/12 01:35:59;;;;;;;12.03;6.27;;;;;;;8.29;83.20;99158.06;5075265;28;20584;-90
2023/01/12 01:38:25;;;;;;;10.53;4.97;;;;;;;8.21;83.28;99162.75;5075244;28;20692;-90
2023/01/12 01:40:50;;;;;;;10.87;5.03;;;;;;;8.11;84.08;99156.22;5075788;28;20183;-89
2023/01/12 01:43:18;;;;;;;10.00;5.13;;;;;;;8.25;83.20;99151.28;5074212;28;20721;-91
2023/01/12 01:45:49;;;;;;;10.10;5.43;;;;;;;8.36;82.49;99159.50;5075056;28;20182;-90
2023/01/12 01:48:16;;;;;;;12.40;5.47;;;;;;;8.40;82.94;99165.44;5074903;28;20180;-89
2023/01/12 01:50:50;;;;;;;14.33;5.20;;;;;;;8.40;82.18;99160.22;5075468;28;20228;-89
2023/01/12 01:53:20;;;;;;;7.87;4.40;;;;;;;8.32;82.79;99168.41;5074800;28;20647;-90
2023/01/12 01:55:59;;;;;;;9.70;4.67;;;;;;;8.28;82.97;99164.19;5074826;28;20279;-89
2023/01/12 01:58:37;;;;;;;10.47;5.70;;;;;;;8.50;82.38;99164.13;5074730;28;20177;-89
2023/01/12 02:01:02;;;;;;;10.33;4.67;;;;;;;8.38;82.37;99168.13;5074077;28;20575;-90
2023/01/12 02:03:29;;;;;;;12.10;5.17;;;;;;;8.37;82.69;99166.44;5074667;28;20172;-90
2023/01/12 02:05:56;;;;;;;8.70;4.60;;;;;;;8.47;82.38;99164.25;5073773;28;20176;-90
2023/01/12 02:08:56;;;;;;;8.00;4.90;;;;;;;8.37;82.93;99158.59;5074568;28;20186;-91
2023/01/12 02:16:59;;;;;;;6.93;4.30;;;;;;;8.22;83.56;99163.59;5074626;28;20237;-90
2023/01/12 02:19:41;;;;;;;10.37;5.50;;;;;;;8.24;83.48;99154.78;5074698;28;20169;-90
2023/01/12 02:22:10;;;;;;;9.43;5.23;;;;;;;8.32;83.73;99164.94;5074243;28;20569;-90
2023/01/12 02:24:52;;;;;;;8.77;4.00;;;;;;;8.46;82.37;99149.53;5074313;28;20184;-89
2023/01/12 02:27:44;;;;;;;11.37;5.43;;;;;;;8.28;83.29;99155.53;5074471;28;20211;-90
2023/01/12 02:30:46;;;;;;;12.63;5.00;;;;;;;8.11;84.20;99160.59;5074363;28;20173;-90
2023/01/12 02:33:49;;;;;;;12.00;5.07;;;;;;;8.10;83.98;99151.06;5073196;28;20276;-91
2023/01/12 02:36:31;;;;;;;13.30;6.43;;;;;;;8.20;84.42;99154.97;5074101;28;20176;-91
2023/01/12 02:39:02;;;;;;;10.37;5.00;;;;;;;8.25;83.52;99155.63;5074068;28;20325;-90
2023/01/12 02:44:52;;;;;;;12.43;5.90;;;;;;;8.35;83.56;99155.22;5074458;28;20240;-90
2023/01/12 02:47:28;;;;;;;12.33;6.23;;;;;;;8.39;83.43;99156.75;5073809;28;20176;-90
2023/01/12 02:50:00;;;;;;;9.40;5.10;;;;;;;8.34;82.71;99157.88;5074474;28;20172;-92
2023/01/12 02:52:28;;;;;;;11.37;6.13;;;;;;;8.31;82.76;99156.25;5073963;28;20222;-90
2023/01/12 02:54:56;;;;;;;14.83;6.20;;;;;;;8.42;82.47;99145.31;5073706;28;20655;-90
2023/01/12 02:57:24;;;;;;;12.40;5.57;;;;;;;8.59;81.62;99161.13;5074025;28;20179;-90
2023/01/12 02:59:51;;;;;;;14.87;6.10;;;;;;;8.61;81.51;99157.53;5073670;28;20185;-91
2023/01/12 03:02:20;;;;;;;12.70;6.17;;;;;;;8.61;81.36;99159.28;5073566;28;20254;-90
2023/01/12 03:04:46;;;;;;;14.97;6.53;;;;;;;8.70;81.29;99155.44;5073265;28;20529;-90
2023/01/12 03:07:14;;;;;;;13.03;6.23;;;;;;;8.75;81.21;99156.91;5073011;28;20186;-90
2023/01/12 03:09:39;;;;;;;13.97;6.70;;;;;;;8.77;81.22;99160.31;5072639;28;20242;-90
2023/01/12 03:12:11;;;;;;;12.47;6.33;;;;;;;8.73;81.66;99150.88;5072527;28;20268;-90
2023/01/12 03:14:43;;;;;;;12.77;6.53;;;;;;;8.63;81.87;99157.44;5073813;28;20595;-90
2023/01/12 03:17:15;;;;;;;16.67;6.27;;;;;;;8.67;81.04;99160.78;5073535;28;20198;-91
2023/01/12 03:19:44;;;;;;;15.47;7.33;;;;;;;8.80;80.73;99165.41;5073814;28;20170;-91
2023/01/12 03:22:12;;;;;;;11.87;6.57;;;;;;;8.77;80.99;99162.91;5073479;28;20181;-91
2023/01/12 03:24:45;;;;;;;14.07;7.33;;;;;;;8.73;80.89;99169.19;5073476;28;20180;-90
2023/01/12 03:27:22;;;;;;;14.60;6.37;;;;;;;8.76;81.00;99163.81;5072531;28;20179;-89
2023/01/12 03:29:55;;;;;;;12.53;6.13;;;;;;;8.78;80.72;99167.22;5073648;28;20168;-90
2023/01/12 03:32:22;;;;;;;13.47;6.10;;;;;;;8.76;80.63;99169.06;5073280;28;20173;-90
2023/01/12 03:34:48;;;;;;;11.63;5.57;;;;;;;8.77;80.23;99170.75;5073672;28;20260;-90
2023/01/12 03:37:34;;;;;;;13.87;5.97;;;;;;;8.81;80.55;99177.53;5073244;28;20685;-91
2023/01/12 03:40:16;;;;;;;12.30;6.23;;;;;;;8.75;80.28;99183.06;5073841;28;20668;-90
2023/01/12 03:42:50;;;;;;;13.77;6.77;;;;;;;8.69;80.25;99183.31;5073895;28;20175;-90
2023/01/12 03:45:55;;;;;;;13.57;6.50;;;;;;;8.76;80.26;99179.50;5073208;28;20617;-91
2023/01/12 03:48:28;;;;;;;12.10;6.73;;;;;;;8.70;80.79;99179.75;5072088;28;20211;-90
2023/01/12 03:51:10;;;;;;;14.40;7.37;;;;;;;8.82;80.25;99186.22;5069921;28;20580;-90
2023/01/12 03:53:37;;;;;;;11.40;5.77;;;;;;;8.85;80.13;99183.47;5073121;28;20185;-91
2023/01/12 03:56:07;;;;;;;11.83;7.07;;;;;;;8.80;80.42;99183.69;5072406;28;20183;-91
2023/01/12 03:58:34;;;;;;;15.10;6.83;;;;;;;8.90;79.86;99187.59;5072767;28;20173;-90
2023/01/12 04:01:03;;;;;;;14.47;7.53;;;;;;;8.84;80.01;99187.00;5073051;28;20177;-91
2023/01/12 04:03:29;;;;;;;14.07;7.43;;;;;;;8.92;80.05;99185.75;5071996;28;20636;-91
2023/01/12 04:05:54;;;;;;;15.63;6.60;;;;;;;8.85;80.14;99194.78;5073021;28;20619;-90
2023/01/12 04:08:20;;;;;;;12.30;6.03;;;;;;;8.89;79.97;99185.88;5071984;28;20179;-90
2023/01/12 04:10:45;;;;;;;12.87;5.23;;;;;;;8.89;79.66;99195.47;5072888;28;20671;-90
2023/01/12 04:13:11;;;;;;;15.93;7.47;;;;;;;8.81;79.74;99198.44;5071955;28;20201;-90
2023/01/12 04:15:41;;;;;;;13.87;7.83;;;;;;;8.85;79.83;99202.63;5071974;28;20179;-90
2023/01/12 04:18:10;;;;;;;14.50;7.03;;;;;;;8.78;79.84;99202.97;5072905;28;20219;-91
2023/01/12 04:20:37;;;;;;;15.00;7.70;;;;;;;8.91;80.08;99198.91;5071853;28;20188;-91
2023/01/12 04:23:03;;;;;;;13.13;6.57;;;;;;;8.92;79.12;99206.66;5071856;28;20177;-90
2023/01/12 04:25:30;;;;;;;14.97;7.43;;;;;;;9.03;79.07;99214.03;5071936;28;20181;-91
2023/01/12 04:28:04;;;;;;;19.10;7.57;;;;;;;9.09;78.93;99209.34;5071842;28;20172;-90
2023/01/12 04:30:31;;;;;;;12.90;6.07;;;;;;;9.18;78.66;99211.56;5072832;28;20159;-91
2023/01/12 04:32:58;;;;;;;10.20;5.47;;;;;;;9.21;78.28;99202.72;5071810;28;20298;-90
2023/01/12 04:35:24;;;;;;;14.53;6.37;;;;;;;9.12;78.57;99208.34;5072753;28;20176;-90
2023/01/12 04:37:50;;;;;;;14.47;6.90;;;;;;;9.16;79.11;99207.31;5071580;28;20228;-91
2023/01/12 04:40:16;;;;;;;12.57;6.90;;;;;;;9.02;78.28;99202.72;5072463;28;20653;-91
2023/01/12 04:43:00;;;;;;;12.20;5.90;;;;;;;9.11;78.39;99207.53;5076167;28;20230;-90
2023/01/12 04:45:27;;;;;;;12.90;6.50;;;;;;;9.09;78.44;99211.13;5076101;28;20203;-91
2023/01/12 04:47:53;;;;;;;11.27;5.90;;;;;;;9.07;78.81;99205.09;5076120;28;20184;-91
2023/01/12 04:50:18;;;;;;;12.83;6.07;;;;;;;9.05;78.50;99213.03;5076284;28;20225;-90
2023/01/12 04:52:44;;;;;;;11.63;6.30;;;;;;;9.06;78.33;99209.50;5074969;28;20216;-90
2023/01/12 04:55:10;;;;;;;11.63;5.73;;;;;;;8.99;77.93;99210.69;5074950;28;20184;-90
2023/01/12 04:57:35;;;;;;;15.33;5.90;;;;;;;8.96;78.51;99213.44;5075056;28;20262;-90
2023/01/12 05:00:01;;;;;;;10.03;4.53;;;;;;;8.90;78.57;99205.88;5076282;28;20301;-90
2023/01/12 05:02:27;;;;;;;9.37;5.00;;;;;;;8.70;79.30;99213.75;5075967;28;20207;-90
2023/01/12 05:04:52;;;;;;;10.57;4.93;;;;;;;8.64;79.18;99211.41;5074958;28;20194;-90
2023/01/12 05:07:18;;;;;;;10.43;4.70;;;;;;;8.82;78.54;99204.53;5076290;28;20180;-90
2023/01/12 05:12:27;;;;;;;8.43;4.83;;;;;;;8.57;78.95;99204.72;5076410;28;20329;-91
2023/01/12 05:14:53;;;;;;;10.63;5.57;;;;;;;8.64;79.41;99207.03;5076149;28;20204;-90
2023/01/12 05:17:18;;;;;;;11.30;4.93;;;;;;;8.56;79.67;99211.75;5075893;28;20177;-90
2023/01/12 05:19:44;;;;;;;9.03;5.03;;;;;;;8.57;80.13;99220.41;5074645;28;20195;-92
2023/01/12 05:22:09;;;;;;;9.43;5.03;;;;;;;8.51;79.86;99218.09;5075611;28;20198;-90
2023/01/12 05:24:35;;;;;;;9.47;4.80;;;;;;;8.40;81.24;99213.31;5074862;28;20667;-91
2023/01/12 05:27:00;;;;;;;8.80;4.63;;;;;;;8.49;80.33;99222.53;5074579;28;20178;-91
2023/01/12 05:29:26;;;;;;;13.77;4.83;;;;;;;8.61;80.37;99212.41;5074339;28;20202;-90
2023/01/12 05:31:52;;;;;;;9.33;4.70;;;;;;;8.56;79.77;99213.50;5074432;28;20246;-90
2023/01/12 05:34:18;;;;;;;9.43;4.07;;;;;;;8.46;80.27;99212.22;5074666;28;20219;-90
2023/01/12 05:36:45;;;;;;;8.30;4.27;;;;;;;8.45;80.79;99218.34;5074165;28;20544;-90
2023/01/12 05:39:10;;;;;;;7.93;3.93;;;;;;;8.39;80.90;99216.81;5074053;28;20269;-90
2023/01/12 05:41:36;;;;;;;12.40;4.40;;;;;;;8.48;80.72;99220.81;5075380;28;20572;-90
2023/01/12 05:44:02;;;;;;;8.00;4.20;;;;;;;8.56;80.26;99224.81;5075315;28;20182;-90
2023/01/12 05:46:32;;;;;;;9.57;4.60;;;;;;;8.46;80.38;99222.66;5075215;28;20298;-90
2023/01/12 05:48:57;;;;;;;9.37;4.70;;;;;;;8.54;80.12;99225.78;5074074;28;20180;-91
2023/01/12 05:51:25;;;;;;;14.10;5.67;;;;;;;8.49;80.04;99222.53;5073455;28;20187;-89
2023/01/12 05:53:51;;;;;;;9.27;4.40;;;;;;;8.59;80.26;99229.06;5073221;28;20603;-90
2023/01/12 05:56:24;;;;;;;8.53;3.63;;;;;;;8.51;80.26;99225.91;5073776;28;20176;-90
2023/01/12 05:58:51;;;;;;;12.07;4.07;;;;;;;8.62;79.82;99229.75;5073717;28;20180;-90
2023/01/12 06:01:17;;;;;;;7.00;3.93;;;;;;;8.63;79.36;99231.47;5074899;28;20622;-90
2023/01/12 06:03:47;;;;;;;8.03;3.93;;;;;;;8.66;79.50;99235.69;5074694;28;20184;-90
2023/01/12 06:06:12;;;;;;;10.27;4.40;;;;;;;8.59;79.26;99242.13;5073579;28;20208;-90
2023/01/12 06:08:37;;;;;;;6.43;3.67;;;;;;;8.59;79.48;99234.28;5074788;28;20267;-90
2023/01/12 06:11:03;;;;;;;8.10;3.53;;;;;;;8.44;79.10;99240.13;5074769;28;20254;-89
2023/01/12 06:16:13;;;;;;;5.47;2.70;;;;;;;8.66;78.54;99243.53;5075313;28;20295;-90
2023/01/12 06:18:38;;;;;;;6.27;3.20;;;;;;;8.68;78.31;99244.31;5074705;28;20177;-89
2023/01/12 06:21:06;;;;;;;5.57;2.93;;;;;;;8.72;78.12;99242.44;5073351;28;20186;-90
2023/01/12 06:23:32;;;;;;;10.27;3.87;;;;;;;8.78;77.66;99243.00;5074305;28;20173;-90
2023/01/12 06:26:02;;;;;;;6.23;3.37;;;;;;;8.81;77.95;99242.88;5074149;28;20193;-90
2023/01/12 06:28:28;;;;;;;8.23;3.83;;;;;;;8.59;78.98;99236.88;5074479;28;20168;-90
2023/01/12 06:31:01;;;;;;;6.30;3.07;;;;;;;8.73;78.70;99247.56;5073199;28;20253;-90
2023/01/12 06:33:27;;;;;;;5.43;2.70;;;;;;;8.60;77.96;99243.78;5073094;28;20307;-91
2023/01/12 06:35:54;;;;;;;9.23;3.53;;;;;;;8.70;77.66;99246.88;5073139;28;20208;-90
2023/01/12 06:38:21;;;;;;;14.43;5.73;;;;;;;8.73;77.44;99241.50;5072981;28;20199;-90
2023/01/12 06:40:46;;;;;;;8.60;3.47;;;;;;;8.71;77.53;99240.72;5073360;28;20184;-90
2023/01/12 06:43:11;;;;;;;6.53;3.00;;;;;;;8.88;77.30;99254.78;5073302;28;20197;-90
2023/01/12 06:45:37;;;;;;;11.67;5.33;;;;;;;8.71;78.16;99253.78;5073851;28;20182;-90
2023/01/12 06:48:03;;;;;;;9.87;3.57;;;;;;;8.72;77.74;99253.75;5072987;28;20601;-90
2023/01/12 06:50:28;;;;;;;10.97;4.00;;;;;;;8.84;77.47;99255.81;5072848;28;20180;-90
2023/01/12 06:52:57;;;;;;;9.97;3.90;;;;;;;8.81;77.17;99255.94;5072912;28;20270;-89
2023/01/12 06:55:22;;;;;;;5.33;2.70;;;;;;;8.75;76.98;99253.63;5073098;28;20654;-90
2023/01/12 06:57:48;;;;;;;8.40;3.40;;;;;;;8.81;77.29;99257.69;5072771;28;20184;-90
2023/01/12 07:00:13;;;;;;;7.93;3.67;;;;;;;8.93;76.06;99258.03;5073610;28;20515;-90
2023/01/12 07:02:39;;;;;;;8.63;3.20;;;;;;;8.77;76.76;99253.53;5072608;28;20195;-90
2023/01/12 07:05:05;;;;;;;6.47;2.70;;;;;;;8.95;75.80;99264.03;5073408;28;20185;-90
2023/01/12 07:07:31;;;;;;;6.20;3.40;;;;;;;9.05;75.67;99265.31;5073588;28;20172;-90
2023/01/12 07:09:56;;;;;;;6.37;3.53;;;;;;;9.13;75.28;99258.00;5073575;28;20265;-90
2023/01/12 07:12:22;;;;;;;11.97;3.63;;;;;;;9.24;74.79;99265.34;5072519;28;20633;-90
2023/01/12 07:14:47;;;;;;;8.00;3.33;;;;;;;9.18;74.50;99261.25;5072623;28;20188;-90
2023/01/12 07:17:13;;;;;;;8.23;3.73;;;;;;;8.96;75.16;99265.72;5073865;28;20179;-91
2023/01/12 07:19:38;;;;;;;6.53;3.30;;;;;;;9.01;74.60;99258.53;5073377;28;20191;-90
2023/01/12 07:22:04;;;;;;;5.37;2.60;;;;;;;9.03;74.57;99266.31;5074005;28;20185;-90
2023/01/12 07:24:29;;;;;;;6.60;2.90;;;;;;;9.17;74.51;99270.00;5072499;28;20241;-90
2023/01/12 07:26:57;;;;;;;7.20;2.70;;;;;;;9.24;74.29;99268.81;5073267;28;20530;-91
2023/01/12 07:29:23;;;;;;;9.03;4.27;;;;;;;9.20;74.45;99275.09;5072412;28;20250;-90
2023/01/12 07:31:48;;;;;;;6.27;3.57;;;;;;;9.20;74.78;99272.47;5072406;28;20195;-90
2023/01/12 07:34:14;;;;;;;8.23;3.80;;;;;;;9.25;74.59;99280.09;5072317;28;20209;-91
2023/01/12 07:36:40;;;;;;;7.80;3.93;;;;;;;9.30;74.54;99275.56;5073585;28;20200;-90
2023/01/12 07:39:07;;;;;;;5.97;3.13;;;;;;;9.32;74.19;99278.09;5072123;28;20200;-90
2023/01/12 07:44:17;;;;;;;8.17;3.43;;;;;;;9.59;74.10;99276.84;5073752;28;20613;-90
2023/01/12 07:46:42;;;;;;;8.13;3.40;;;;;;;9.36;74.03;99284.84;5072348;28;20185;-90
2023/01/12 07:49:08;;;;;;;7.40;3.53;;;;;;;9.52;74.37;99286.72;5073183;28;20212;-90
2023/01/12 07:51:33;;;;;;;9.23;3.73;;;;;;;9.43;74.47;99287.16;5072114;28;20528;-91
2023/01/12 07:53:59;;;;;;;7.37;2.93;;;;;;;9.56;74.85;99290.06;5073588;28;20295;-89
2023/01/12 07:56:24;;;;;;;8.87;4.03;;;;;;;9.71;74.27;99294.56;5072096;28;20623;-90
2023/01/12 07:58:50;;;;;;;7.73;3.80;;;;;;;9.78;74.38;99290.75;5073343;28;20180;-90
2023/01/12 08:01:15;;;;;;;7.33;4.10;;;;;;;9.97;74.22;99298.56;5073021;28;20191;-90
2023/01/12 08:03:41;;;;;;;8.13;3.93;;;;;;;10.12;74.08;99297.84;5073358;28;20298;-90
2023/01/12 08:06:07;;;;;;;9.97;4.53;;;;;;;10.15;74.13;99290.72;5072904;28;20184;-90
2023/01/12 08:08:33;;;;;;;7.50;4.20;;;;;;;10.21;73.77;99297.44;5073226;28;20627;-90
2023/01/12 08:11:07;;;;;;;10.60;4.57;;;;;;;10.12;75.20;99297.84;5071963;28;20173;-90
2023/01/12 08:13:33;;;;;;;10.63;4.10;;;;;;;10.08;73.31;99296.31;5072778;28;20240;-90
2023/01/12 08:16:05;;;;;;;9.57;4.17;;;;;;;10.10;73.62;99303.16;5074548;28;20257;-90
2023/01/12 08:18:37;;;;;;;8.90;4.23;;;;;;;10.20;74.08;99307.06;5076603;28;20157;-90
2023/01/12 08:21:07;;;;;;;9.60;4.70;;;;;;;9.93;74.85;99311.00;5077150;28;20606;-90
2023/01/12 08:23:41;;;;;;;16.37;6.63;;;;;;;10.26;74.87;99317.25;5076834;28;20161;-90
2023/01/12 08:26:13;;;;;;;12.53;5.53;;;;;;;10.40;74.49;99320.03;5075566;28;20251;-90
2023/01/12 08:28:44;;;;;;;8.30;4.30;;;;;;;10.01;73.55;99321.91;5076713;28;20176;-90
2023/01/12 08:31:12;;;;;;;7.37;3.57;;;;;;;10.06;74.72;99324.34;5076531;28;20188;-90
2023/01/12 08:33:39;;;;;;;9.20;4.77;;;;;;;10.18;74.63;99324.63;5076529;28;20678;-90
2023/01/12 08:36:08;;;;;;;7.87;3.97;;;;;;;10.12;74.39;99327.53;5075469;28;20561;-90
2023/01/12 08:38:33;;;;;;;7.53;4.13;;;;;;;10.21;75.13;99321.88;5076182;28;20189;-90
2023/01/12 08:44:01;;;;;;;9.23;4.57;;;;;;;10.26;74.87;99329.50;5076669;28;20211;-90
2023/01/12 08:46:37;;;;;;;8.40;3.83;;;;;;;10.51;75.16;99326.56;5075263;28;20177;-90
2023/01/12 08:49:06;;;;;;;9.50;4.47;;;;;;;10.62;74.82;99332.09;5076596;28;20169;-89
2023/01/12 08:51:33;;;;;;;7.20;4.03;;;;;;;10.18;74.52;99336.88;5075351;28;20192;-90
2023/01/12 08:53:59;;;;;;;8.57;4.03;;;;;;;10.15;74.86;99337.88;5075156;28;20201;-90
2023/01/12 08:56:24;;;;;;;7.50;4.13;;;;;;;10.32;74.63;99332.69;5075080;28;20682;-90
2023/01/12 08:58:50;;;;;;;9.83;4.63;;;;;;;10.22;74.55;99339.28;5076049;28;20215;-91
2023/01/12 09:01:15;;;;;;;10.40;3.97;;;;;;;9.96;75.05;99331.75;5076273;28;20181;-90
2023/01/12 09:03:43;;;;;;;14.10;3.93;;;;;;;9.98;75.31;99327.31;5075330;28;20180;-90
2023/01/12 09:06:18;;;;;;;9.60;4.30;;;;;;;10.06;74.95;99327.81;5075837;28;20281;-91
2023/01/12 09:08:45;;;;;;;9.10;3.67;;;;;;;9.85;74.71;99324.41;5074911;28;20279;-90
2023/01/12 09:11:12;;;;;;;8.40;3.63;;;;;;;9.85;75.59;99326.22;5076140;28;20173;-90
2023/01/12 09:13:38;;;;;;;9.87;3.93;;;;;;;9.97;76.15;99325.63;5074712;28;20212;-90
2023/01/12 09:16:09;;;;;;;8.53;3.53;;;;;;;9.94;76.10;99328.38;5075743;28;20690;-89
2023/01/12 09:18:35;;;;;;;7.23;3.67;;;;;;;10.13;76.24;99329.25;5075614;28;20169;-90
2023/01/12 09:21:08;;;;;;;9.13;4.20;;;;;;;10.30;75.97;99325.78;5076072;28;20242;-90
2023/01/12 09:23:34;;;;;;;9.67;4.50;;;;;;;10.40;75.49;99324.47;5074610;28;20192;-90
2023/01/12 09:26:12;;;;;;;8.17;4.37;;;;;;;10.28;74.77;99325.88;5075633;28;20169;-90
2023/01/12 09:28:38;;;;;;;8.43;4.47;;;;;;;10.45;75.07;99317.22;5074436;28;20188;-90
2023/01/12 09:31:09;;;;;;;6.07;3.20;;;;;;;10.51;75.29;99321.31;5075355;28;20177;-90
2023/01/12 09:33:36;;;;;;;9.10;3.97;;;;;;;10.54;75.32;99315.88;5075201;28;20228;-90
2023/01/12 09:36:10;;;;;;;7.40;3.43;;;;;;;10.59;74.80;99313.88;5075348;28;20180;-90
2023/01/12 09:38:40;;;;;;;9.70;3.50;;;;;;;10.64;74.29;99311.91;5074988;28;20703;-91
2023/01/12 09:47:39;;;;;;;6.50;3.10;;;;;;;10.67;74.99;99309.13;5075508;28;20175;-90
2023/01/12 09:50:07;;;;;;;9.83;4.07;;;;;;;10.68;74.49;99308.19;5075527;28;20630;-90
2023/01/12 09:52:42;;;;;;;7.93;3.93;;;;;;;10.73;74.83;99300.94;5073924;28;20182;-89
2023/01/12 09:55:17;;;;;;;7.23;3.67;;;;;;;10.80;74.95;99299.69;5075238;28;20166;-89
2023/01/12 09:58:01;;;;;;;9.53;4.53;;;;;;;11.06;75.00;99302.69;5074854;28;20208;-90
2023/01/12 10:00:27;;;;;;;13.33;4.53;;;;;;;11.02;73.54;99295.06;5075018;28;20554;-89
2023/01/12 10:03:27;;;;;;;6.80;3.63;;;;;;;10.93;73.85;99292.91;5074664;28;20174;-90
2023/01/12 10:05:57;;;;;;;6.97;3.63;;;;;;;10.93;74.33;99293.75;5067198;28;20190;-90
2023/01/12 10:08:37;;;;;;;7.50;3.10;;;;;;;11.05;74.50;99302.78;5074539;28;20169;-90
2023/01/12 10:11:20;;;;;;;6.90;3.57;;;;;;;11.30;74.01;99290.06;5074792;28;20200;-90
2023/01/12 10:14:24;;;;;;;5.13;3.10;;;;;;;11.28;72.68;99278.81;5073519;28;20205;-90
2023/01/12 10:17:08;;;;;;;7.20;3.47;;;;;;;11.01;73.58;99283.72;5072709;28;20193;-90
2023/01/12 10:19:58;;;;;;;9.60;3.40;;;;;;;11.21;73.18;99282.69;5073476;28;20341;-90
2023/01/12 10:22:38;;;;;;;6.30;3.57;;;;;;;11.26;72.76;99280.69;5073414;28;20279;-90
2023/01/12 10:25:19;;;;;;;7.17;3.27;;;;;;;11.36;72.38;99283.66;5073620;28;20201;-90
2023/01/12 10:27:46;;;;;;;5.67;3.10;;;;;;;11.30;71.36;99279.56;5074339;28;20505;-90
2023/01/12 10:30:36;;;;;;;6.87;2.93;;;;;;;11.44;71.36;99270.97;5074362;28;20633;-90
2023/01/12 10:33:08;;;;;;;9.33;3.77;;;;;;;11.39;71.24;99271.22;5074298;28;20604;-90
2023/01/12 10:35:33;;;;;;;6.00;2.60;;;;;;;11.62;71.75;99272.59;5073179;28;20187;-90
2023/01/12 10:37:59;;;;;;;8.77;3.60;;;;;;;11.85;71.05;99261.69;5072310;28;20283;-90
2023/01/12 10:40:31;;;;;;;7.13;3.43;;;;;;;11.79;70.03;99264.69;5073941;28;20172;-90
2023/01/12 10:43:30;;;;;;;4.90;2.00;;;;;;;11.93;69.73;99256.00;5073832;28;20166;-90
2023/01/12 10:46:22;;;;;;;4.40;2.20;;;;;;;11.98;68.96;99259.22;5074408;28;20559;-89
2023/01/12 10:48:51;;;;;;;4.53;2.90;;;;;;;12.03;68.97;99251.94;5074111;28;20223;-90
2023/01/12 10:51:28;;;;;;;3.47;1.70;;;;;;;12.05;68.29;99255.34;5073717;28;20170;-90
2023/01/12 10:54:01;;;;;;;3.70;1.77;;;;;;;11.69;68.37;99256.44;5074207;28;20259;-90
2023/01/12 10:56:38;;;;;;;4.97;2.23;;;;;;;11.77;68.86;99248.13;5073706;28;20248;-89
2023/01/12 10:59:06;;;;;;;4.37;2.27;;;;;;;11.97;68.85;99245.25;5073640;28;20177;-90
2023/01/12 11:02:03;;;;;;;4.37;2.67;;;;;;;11.90;67.41;99251.78;5073617;28;20611;-90
2023/01/12 11:04:30;;;;;;;6.07;2.80;;;;;;;11.85;68.50;99253.81;5074074;28;20161;-90
2023/01/12 11:07:00;;;;;;;5.13;2.70;;;;;;;11.96;67.91;99251.44;5073434;28;20176;-89
2023/01/12 11:09:28;;;;;;;7.23;3.57;;;;;;;11.99;67.69;99255.66;5073641;28;20258;-89
2023/01/12 11:11:59;;;;;;;3.73;1.90;;;;;;;12.12;67.49;99246.16;5073458;28;20240;-89
2023/01/12 11:14:27;;;;;;;7.03;2.60;;;;;;;11.99;67.21;99238.13;5073398;28;20200;-90
2023/01/12 11:17:02;;;;;;;6.40;2.83;;;;;;;11.98;68.06;99241.69;5072501;28;20185;-90
2023/01/12 11:19:39;;;;;;;5.70;2.83;;;;;;;12.16;67.52;99237.16;5073313;28;20169;-90
2023/01/12 11:22:11;;;;;;;7.53;3.93;;;;;;;12.08;67.34;99244.66;5072731;28;20181;-89
2023/01/12 11:24:46;;;;;;;4.47;2.03;;;;;;;12.07;67.15;99245.59;5072277;28;20181;-89
2023/01/12 11:27:27;;;;;;;4.30;2.33;;;;;;;12.05;66.73;99239.56;5072338;28;20174;-90
2023/01/12 11:29:58;;;;;;;4.37;2.10;;;;;;;11.89;66.07;99238.75;5073593;28;20194;-90
2023/01/12 11:32:31;;;;;;;7.63;4.20;;;;;;;12.02;66.97;99250.25;5073467;28;20249;-90
2023/01/12 11:35:04;;;;;;;5.17;2.13;;;;;;;12.18;67.21;99243.19;5073529;28;20197;-90
2023/01/12 11:37:33;;;;;;;7.53;2.90;;;;;;;12.19;67.03;99236.97;5073234;28;20456;-89
2023/01/12 11:40:24;;;;;;;5.80;2.57;;;;;;;12.40;66.56;99232.25;5073440;28;20519;-89
2023/01/12 11:45:51;;;;;;;3.70;1.80;;;;;;;12.47;65.63;99229.22;5073876;28;20317;-89
2023/01/12 11:48:26;;;;;;;7.60;3.27;;;;;;;12.30;66.54;99224.09;5073235;28;20172;-89
2023/01/12 11:50:52;;;;;;;4.20;2.30;;;;;;;12.32;66.39;99216.94;5075163;28;20651;-89
2023/01/12 11:53:23;;;;;;;4.40;2.27;;;;;;;12.26;66.54;99212.88;5077049;28;20286;-89
2023/01/12 11:56:06;;;;;;;6.30;2.97;;;;;;;12.38;66.18;99213.13;5077283;28;20197;-89
2023/01/12 11:58:46;;;;;;;5.73;2.17;;;;;;;12.50;66.65;99215.88;5077308;28;20181;-89
2023/01/12 12:01:58;;;;;;;5.87;2.40;;;;;;;12.55;66.27;99220.88;5077255;28;20174;-89
2023/01/12 12:04:33;;;;;;;7.17;2.90;;;;;;;12.41;66.72;99216.41;5075864;28;20208;-88
2023/01/12 12:07:01;;;;;;;6.33;2.90;;;;;;;12.47;67.53;99210.81;5077160;28;20163;-89
2023/01/12 12:09:56;;;;;;;8.80;4.40;;;;;;;12.73;66.71;99207.47;5076824;28;20175;-89
2023/01/12 12:12:24;;;;;;;5.80;3.03;;;;;;;12.70;66.41;99202.41;5075900;28;20221;-89
2023/01/12 12:14:58;;;;;;;8.27;3.40;;;;;;;12.90;67.48;99207.28;5076815;28;20190;-89
2023/01/12 12:17:30;;;;;;;7.10;3.10;;;;;;;12.74;65.07;99217.03;5075653;28;20644;-89
2023/01/12 12:20:29;;;;;;;6.67;3.33;;;;;;;13.03;66.33;99203.91;5076456;28;20193;-88
2023/01/12 12:23:17;;;;;;;5.57;3.00;;;;;;;13.22;65.13;99200.09;5076536;28;20593;-89
2023/01/12 12:25:46;;;;;;;5.50;3.00;;;;;;;13.38;64.24;99198.19;5076742;28;20182;-89
2023/01/12 12:28:35;;;;;;;6.23;3.20;;;;;;;13.40;63.88;99198.06;5076450;28;20183;-89